Mushin, Nigeria
Current Conditions -  °F | °C
As of 7:00 AM on Thursday 27 Nov 2014 (Local Time) from DBBB Reporting Station
Haze Haze  
Wind Chill: 77°   Ceiling: Unl
Heat Index: 78°   Visibility: 2.2mi
Dew Point: 77°   Wind: 1mph
Humidity: 100%   Direction: 310°NW
Pressure: 29.83"   Gusts: NA
Location:  6.53°N, 3.36°E
Report Text: DBBB 270600Z 31001KT 3600 BR SCT010 25/25 Q1010 TEMPO 2500
Loading
Personal Weather Stations






























Interactive Weather Map New forecast layout! Learn more

10-Day Weather Forecast

Advertisements
Track Severe Weather on mobile